createdAt,value
2023-06-21T00:02:05.026Z,43.92
2023-06-21T00:07:08.332Z,36.88
2023-06-21T00:12:10.169Z,36.47
2023-06-21T00:17:11.727Z,34.47
2023-06-21T00:22:13.241Z,38.60
2023-06-21T00:27:14.782Z,37.60
2023-06-21T00:32:16.371Z,40.20
2023-06-21T00:37:17.945Z,41.15
2023-06-21T00:42:19.660Z,43.78
2023-06-21T00:47:21.492Z,39.10
2023-06-21T00:52:23.257Z,40.20
2023-06-21T00:57:25.612Z,38.63
2023-06-21T01:02:27.851Z,38.10
2023-06-21T01:07:37.275Z,40.60
2023-06-21T01:13:06.804Z,41.83
2023-06-21T01:18:13.720Z,34.90
2023-06-21T01:23:27.102Z,39.42
2023-06-21T01:28:47.074Z,41.08
2023-06-21T01:33:49.315Z,34.70
2023-06-21T01:38:57.884Z,33.90
2023-06-21T01:43:59.597Z,32.60
2023-06-21T01:49:04.498Z,30.38
2023-06-21T01:54:06.781Z,34.58
2023-06-21T01:59:08.950Z,31.55
2023-06-21T02:04:12.185Z,32.88
2023-06-21T02:09:13.990Z,32.10
2023-06-21T02:14:16.014Z,31.58
2023-06-21T02:19:17.564Z,33.70
2023-06-21T02:24:19.185Z,31.55
2023-06-21T02:29:22.556Z,32.28
2023-06-21T02:34:24.178Z,27.48
2023-06-21T02:39:25.811Z,29.02
2023-06-21T02:44:27.347Z,24.20
2023-06-21T02:49:28.916Z,28.27
2023-06-21T02:54:31.062Z,27.65
2023-06-21T02:59:32.684Z,29.05
2023-06-21T03:04:34.243Z,24.63
2023-06-21T03:09:35.896Z,25.92
2023-06-21T03:14:38.562Z,31.40
2023-06-21T03:19:40.098Z,25.42
2023-06-21T03:24:41.738Z,28.90
2023-06-21T03:29:43.318Z,28.63
2023-06-21T03:34:44.884Z,27.17
2023-06-21T03:39:46.453Z,26.55
2023-06-21T03:44:48.067Z,29.45
2023-06-21T03:49:49.619Z,26.98
2023-06-21T03:54:53.480Z,28.08
2023-06-21T03:59:55.021Z,29.80
2023-06-21T04:04:56.541Z,24.98
2023-06-21T04:09:58.109Z,24.90
2023-06-21T04:15:02.304Z,26.63
2023-06-21T04:20:11.239Z,21.02
2023-06-21T04:25:12.830Z,25.83
2023-06-21T04:30:15.233Z,23.77
2023-06-21T04:35:18.225Z,15.65
2023-06-21T04:40:22.166Z,19.27
2023-06-21T04:45:23.846Z,16.45
2023-06-21T04:50:25.761Z,19.48
2023-06-21T04:55:28.653Z,19.25
2023-06-21T05:00:30.676Z,15.30
2023-06-21T05:05:34.796Z,21.58
2023-06-21T05:10:36.917Z,17.00
2023-06-21T05:15:38.523Z,15.80
2023-06-21T05:20:40.108Z,16.13
2023-06-21T05:25:41.681Z,17.38
2023-06-21T05:30:43.326Z,16.17
2023-06-21T05:35:44.940Z,11.43
2023-06-21T05:40:46.467Z,16.95
2023-06-21T05:45:48.097Z,14.57
2023-06-21T05:50:50.917Z,14.02
2023-06-21T05:55:54.802Z,14.68
2023-06-21T06:00:58.001Z,19.95
2023-06-21T06:06:03.109Z,17.70
2023-06-21T06:11:04.666Z,12.50
2023-06-21T06:16:06.272Z,12.93
2023-06-21T06:21:07.839Z,14.43
2023-06-21T06:26:11.005Z,11.35
2023-06-21T06:31:12.824Z,13.73
2023-06-21T06:36:14.556Z,11.15
2023-06-21T06:41:17.000Z,17.48
2023-06-21T06:46:18.728Z,13.82
2023-06-21T06:51:20.272Z,12.00
2023-06-21T06:56:21.914Z,13.40
2023-06-21T07:01:23.518Z,15.55
2023-06-21T07:06:25.880Z,13.35
2023-06-21T07:11:27.487Z,14.63
2023-06-21T07:16:35.584Z,14.88
2023-06-21T07:21:37.927Z,12.90
2023-06-21T07:26:40.092Z,13.85
2023-06-21T07:31:41.643Z,11.98
2023-06-21T07:36:43.302Z,11.95
2023-06-21T07:41:44.826Z,12.68
2023-06-21T07:46:52.347Z,12.05
2023-06-21T07:51:54.002Z,13.00
2023-06-21T07:56:55.568Z,10.93
2023-06-21T08:01:57.195Z,15.07
2023-06-21T08:06:58.915Z,10.57
2023-06-21T08:12:01.395Z,13.65
2023-06-21T08:17:03.298Z,12.40
2023-06-21T08:22:05.238Z,12.75
2023-06-21T08:27:07.340Z,11.30
2023-06-21T08:32:09.106Z,14.40
2023-06-21T08:37:10.799Z,14.70
2023-06-21T08:42:12.374Z,9.82
2023-06-21T08:47:15.374Z,12.52
2023-06-21T08:52:21.909Z,11.95
2023-06-21T08:57:24.402Z,13.02
2023-06-21T09:02:53.922Z,10.73
2023-06-21T09:07:57.638Z,12.40
2023-06-21T09:13:00.770Z,11.25
2023-06-21T09:18:02.785Z,10.52
2023-06-21T09:23:04.646Z,12.68
2023-06-21T09:28:06.247Z,13.90
2023-06-21T09:33:09.156Z,9.98
2023-06-21T09:38:27.318Z,12.93
2023-06-21T09:43:28.973Z,11.57
2023-06-21T09:48:40.262Z,12.18
2023-06-21T09:53:46.908Z,13.45
2023-06-21T10:03:52.718Z,13.93
2023-06-21T10:08:55.463Z,12.05
2023-06-21T10:13:57.069Z,14.50
2023-06-21T10:19:00.065Z,10.95
2023-06-21T10:24:06.890Z,10.30
2023-06-21T10:29:10.403Z,9.43
2023-06-21T10:34:19.943Z,6.75
2023-06-21T10:39:25.243Z,8.43
2023-06-21T10:44:29.792Z,4.97
2023-06-21T10:49:32.160Z,6.45
2023-06-21T10:54:34.267Z,4.70
2023-06-21T10:59:36.644Z,9.25
2023-06-21T11:05:18.258Z,9.32
2023-06-21T11:10:41.625Z,9.43
2023-06-21T11:15:46.451Z,14.32
2023-06-21T11:20:50.575Z,10.57
2023-06-21T11:26:02.855Z,10.90
2023-06-21T11:31:08.273Z,9.18
2023-06-21T11:36:09.945Z,19.77
2023-06-21T11:41:43.978Z,14.48
2023-06-21T11:46:46.450Z,12.65
2023-06-21T11:51:52.853Z,8.65
2023-06-21T12:02:04.346Z,12.90
2023-06-21T12:07:06.697Z,10.60
2023-06-21T12:12:08.902Z,8.60
2023-06-21T12:17:16.998Z,10.15
2023-06-21T12:22:22.519Z,12.88
2023-06-21T12:27:24.110Z,16.80
2023-06-21T12:32:25.751Z,11.30
2023-06-21T12:37:27.740Z,17.40
2023-06-21T12:42:33.019Z,12.77
2023-06-21T12:47:34.656Z,13.88
2023-06-21T12:52:36.349Z,10.60
2023-06-21T12:57:38.305Z,13.20
2023-06-21T13:02:40.320Z,13.80
2023-06-21T13:07:41.949Z,10.68
2023-06-21T13:12:43.540Z,10.25
2023-06-21T13:17:45.210Z,8.45
2023-06-21T13:22:46.838Z,9.10
2023-06-21T13:27:48.384Z,8.82
2023-06-21T13:32:49.944Z,5.43
2023-06-21T13:37:51.691Z,4.32
2023-06-21T13:42:55.119Z,6.68
2023-06-21T13:47:57.116Z,3.50
2023-06-21T13:52:59.433Z,5.93
2023-06-21T13:58:01.072Z,4.95
2023-06-21T14:03:02.851Z,5.10
2023-06-21T14:08:05.030Z,7.13
2023-06-21T14:13:06.626Z,6.47
2023-06-21T14:18:09.356Z,4.55
2023-06-21T14:23:10.903Z,5.95
2023-06-21T14:28:13.606Z,4.80
2023-06-21T14:33:15.178Z,4.93
2023-06-21T14:38:16.934Z,3.58
2023-06-21T14:43:18.582Z,4.47
2023-06-21T14:48:21.195Z,2.40
2023-06-21T14:53:22.935Z,3.72
2023-06-21T14:58:24.534Z,4.15
2023-06-21T15:03:26.219Z,3.78
2023-06-21T15:08:27.821Z,3.83
2023-06-21T15:13:29.403Z,2.45
2023-06-21T15:18:31.081Z,3.17
2023-06-21T15:23:32.710Z,5.55
2023-06-21T15:28:34.939Z,2.50
2023-06-21T15:33:36.548Z,4.18
2023-06-21T15:38:38.152Z,2.83
2023-06-21T15:43:40.062Z,3.03
2023-06-21T15:48:41.746Z,3.25
2023-06-21T15:53:44.196Z,2.72
2023-06-21T15:58:45.792Z,4.40
2023-06-21T16:03:48.536Z,2.70
2023-06-21T16:08:50.290Z,3.70
2023-06-21T16:13:51.898Z,2.72
2023-06-21T16:18:55.604Z,3.85
2023-06-21T16:23:57.380Z,4.35
2023-06-21T16:28:58.937Z,3.95
2023-06-21T16:34:00.500Z,3.22
2023-06-21T16:39:03.143Z,2.97
2023-06-21T16:44:04.738Z,5.18
2023-06-21T16:49:06.482Z,4.05
2023-06-21T16:54:08.044Z,4.43
2023-06-21T16:59:09.729Z,3.78
2023-06-21T17:04:14.262Z,4.78
2023-06-21T17:09:15.893Z,4.40
2023-06-21T17:14:17.414Z,4.32
2023-06-21T17:19:19.520Z,6.85
2023-06-21T17:24:21.273Z,4.78
2023-06-21T17:29:23.538Z,3.70
2023-06-21T17:34:25.670Z,6.93
2023-06-21T17:39:27.244Z,3.40
2023-06-21T17:44:28.811Z,5.55
2023-06-21T17:49:31.484Z,4.22
2023-06-21T17:54:33.666Z,5.60
2023-06-21T17:59:35.820Z,5.00
2023-06-21T18:04:37.337Z,6.57
2023-06-21T18:09:38.826Z,6.93
2023-06-21T18:14:41.670Z,8.35
2023-06-21T18:19:43.251Z,7.88
2023-06-21T18:24:44.794Z,10.13
2023-06-21T18:30:00.923Z,6.90
2023-06-21T18:35:06.994Z,4.90
2023-06-21T18:40:09.164Z,7.88
2023-06-21T18:45:11.006Z,6.13
2023-06-21T18:50:12.584Z,5.25
2023-06-21T18:55:15.284Z,5.75
2023-06-21T19:00:17.040Z,5.38
2023-06-21T19:05:18.883Z,6.20
2023-06-21T19:10:20.552Z,5.50
2023-06-21T19:15:22.069Z,4.80
2023-06-21T19:20:23.658Z,3.67
2023-06-21T19:25:25.404Z,6.93
2023-06-21T19:30:27.384Z,4.63
2023-06-21T19:35:31.521Z,8.90
2023-06-21T19:40:33.104Z,5.18
2023-06-21T19:45:34.759Z,5.88
2023-06-21T19:50:36.345Z,7.53
2023-06-21T19:55:38.434Z,7.35
2023-06-21T20:00:42.535Z,9.70
2023-06-21T20:05:44.153Z,12.65
2023-06-21T20:10:45.757Z,12.02
2023-06-21T20:15:49.358Z,9.30
2023-06-21T20:20:50.955Z,11.38
2023-06-21T20:25:55.126Z,9.27
2023-06-21T20:30:56.742Z,8.90
2023-06-21T20:35:59.727Z,14.75
2023-06-21T20:41:04.156Z,16.50
2023-06-21T20:46:06.153Z,11.63
2023-06-21T20:51:07.740Z,16.08
2023-06-21T20:56:09.261Z,18.45
2023-06-21T21:01:14.893Z,17.05
2023-06-21T21:06:16.671Z,25.52
2023-06-21T21:11:18.248Z,25.55
2023-06-21T21:16:19.769Z,24.58
2023-06-21T21:21:22.171Z,21.27
2023-06-21T21:26:23.796Z,22.65
2023-06-21T21:31:25.353Z,32.75
2023-06-21T21:36:26.928Z,25.80
2023-06-21T21:41:28.484Z,29.13
2023-06-21T21:46:29.999Z,25.48
2023-06-21T21:51:31.530Z,33.28
2023-06-21T21:56:33.099Z,33.72
2023-06-21T22:01:34.716Z,28.60
2023-06-21T22:06:37.375Z,36.70
2023-06-21T22:11:39.007Z,31.50
2023-06-21T22:16:40.579Z,31.90
2023-06-21T22:21:42.648Z,31.27
2023-06-21T22:26:44.150Z,32.20
2023-06-21T22:31:48.000Z,32.72
2023-06-21T22:36:49.966Z,33.67
2023-06-21T22:41:51.595Z,33.05
2023-06-21T22:46:53.173Z,38.35
2023-06-21T22:51:54.749Z,41.03
2023-06-21T22:56:56.343Z,37.50
2023-06-21T23:01:57.854Z,46.80
2023-06-21T23:07:02.311Z,40.08
2023-06-21T23:12:04.318Z,41.00
2023-06-21T23:17:09.193Z,40.80
2023-06-21T23:22:12.682Z,40.15
2023-06-21T23:27:15.702Z,41.20
2023-06-21T23:32:25.031Z,46.80
2023-06-21T23:37:29.875Z,36.13
2023-06-21T23:42:31.474Z,41.30
2023-06-21T23:47:33.021Z,42.13
2023-06-21T23:52:34.726Z,40.70
2023-06-21T23:57:36.346Z,38.83
